createdAt,value
2018-10-17T00:00:18.005Z,14.61
2018-10-17T00:01:28.141Z,14.66
2018-10-17T00:02:38.218Z,14.56
2018-10-17T00:03:48.043Z,14.63
2018-10-17T00:04:58.267Z,14.57
2018-10-17T00:06:09.176Z,14.49
2018-10-17T00:07:19.760Z,14.51
2018-10-17T00:08:29.841Z,14.49
2018-10-17T00:09:39.932Z,14.52
2018-10-17T00:10:50.015Z,14.41
2018-10-17T00:12:00.176Z,14.44
2018-10-17T00:13:10.581Z,14.38
2018-10-17T00:14:21.040Z,14.36
2018-10-17T00:15:31.122Z,14.41
2018-10-17T00:16:41.200Z,14.38
2018-10-17T00:17:51.282Z,14.41
2018-10-17T00:19:00.946Z,14.38
2018-10-17T00:20:11.263Z,14.44
2018-10-17T00:21:21.330Z,14.42
2018-10-17T00:22:31.210Z,14.42
2018-10-17T00:23:41.356Z,14.41
2018-10-17T00:24:51.504Z,14.39
2018-10-17T00:26:01.705Z,14.39
2018-10-17T00:27:11.512Z,14.42
2018-10-17T00:28:21.565Z,14.44
2018-10-17T00:29:31.647Z,14.42
2018-10-17T00:30:41.762Z,14.41
2018-10-17T00:31:51.559Z,14.39
2018-10-17T00:33:01.622Z,14.36
2018-10-17T00:34:11.707Z,14.3
2018-10-17T00:35:21.471Z,14.39
2018-10-17T00:36:31.568Z,14.3
2018-10-17T00:37:41.653Z,14.39
2018-10-17T00:38:51.736Z,14.31
2018-10-17T00:40:04.271Z,14.38
2018-10-17T00:41:14.716Z,14.39
2018-10-17T00:42:25.039Z,14.28
2018-10-17T00:43:35.119Z,14.33
2018-10-17T00:44:45.288Z,14.27
2018-10-17T00:45:55.471Z,14.3
2018-10-17T00:47:06.290Z,14.23
2018-10-17T00:48:16.291Z,14.27
2018-10-17T00:49:26.362Z,14.23
2018-10-17T00:50:36.499Z,14.21
2018-10-17T00:51:46.299Z,14.19
2018-10-17T00:52:56.540Z,14.15
2018-10-17T00:54:06.815Z,14.15
2018-10-17T00:55:17.212Z,14.11
2018-10-17T00:56:27.319Z,14.19
2018-10-17T00:57:37.115Z,14.2
2018-10-17T00:58:47.201Z,14.16
2018-10-17T00:59:57.274Z,14.16
2018-10-17T01:01:08.072Z,14.06
2018-10-17T01:02:18.546Z,14.11
2018-10-17T01:03:28.103Z,14.09
2018-10-17T01:04:38.238Z,14.06
2018-10-17T01:05:48.310Z,14.09
2018-10-17T01:06:58.842Z,14.06
2018-10-17T01:08:09.125Z,13.95
2018-10-17T01:09:19.201Z,13.95
2018-10-17T01:10:29.283Z,13.94
2018-10-17T01:11:39.367Z,14.01
2018-10-17T01:12:49.501Z,13.94
2018-10-17T01:13:59.440Z,13.91
2018-10-17T01:15:09.258Z,13.86
2018-10-17T01:16:19.325Z,13.87
2018-10-17T01:17:29.394Z,13.84
2018-10-17T01:18:39.248Z,13.84
2018-10-17T01:19:49.323Z,13.97
2018-10-17T01:20:59.409Z,13.88
2018-10-17T01:22:09.497Z,13.9
2018-10-17T01:23:19.982Z,13.93
2018-10-17T01:24:30.109Z,13.93
2018-10-17T01:25:40.184Z,13.88
2018-10-17T01:26:50.261Z,13.9
2018-10-17T01:28:02.244Z,13.95
2018-10-17T01:29:12.862Z,13.87
2018-10-17T01:30:23.334Z,13.94
2018-10-17T01:31:33.426Z,13.86
2018-10-17T01:32:43.493Z,13.87
2018-10-17T01:33:53.566Z,13.87
2018-10-17T01:35:03.867Z,13.86
2018-10-17T01:36:14.288Z,13.88
2018-10-17T01:37:24.380Z,13.9
2018-10-17T01:38:34.477Z,13.95
2018-10-17T01:39:44.727Z,13.91
2018-10-17T01:40:54.584Z,13.95
2018-10-17T01:42:04.326Z,13.93
2018-10-17T01:43:14.610Z,13.97
2018-10-17T01:44:25.152Z,13.87
2018-10-17T01:45:35.407Z,13.88
2018-10-17T01:46:45.229Z,13.93
2018-10-17T01:47:55.374Z,13.87
2018-10-17T01:49:05.461Z,13.93
2018-10-17T01:50:15.779Z,13.93
2018-10-17T01:51:25.852Z,14.01
2018-10-17T01:52:35.934Z,13.81
2018-10-17T01:53:46.252Z,13.93
2018-10-17T01:54:56.732Z,13.94
2018-10-17T01:56:06.611Z,13.86
2018-10-17T01:57:16.692Z,13.91
2018-10-17T01:58:26.502Z,13.93
2018-10-17T01:59:36.641Z,13.91
2018-10-17T02:00:46.722Z,13.94
2018-10-17T02:01:56.632Z,13.88
2018-10-17T02:03:06.713Z,13.84
2018-10-17T02:04:16.274Z,13.94
2018-10-17T02:05:26.412Z,13.84
2018-10-17T02:06:36.478Z,13.84
2018-10-17T02:07:46.593Z,13.84
2018-10-17T02:08:56.700Z,13.83
2018-10-17T02:10:08.817Z,13.78
2018-10-17T02:11:19.355Z,13.7
2018-10-17T02:12:29.496Z,13.65
2018-10-17T02:13:39.314Z,13.68
2018-10-17T02:14:50.323Z,13.66
2018-10-17T02:16:02.073Z,13.63
2018-10-17T02:17:12.204Z,13.6
2018-10-17T02:18:22.485Z,13.63
2018-10-17T02:19:32.563Z,13.6
2018-10-17T02:20:42.691Z,13.62
2018-10-17T02:21:53.070Z,13.57
2018-10-17T02:23:32.456Z,13.6
2018-10-17T02:24:42.527Z,13.53
2018-10-17T02:25:52.604Z,13.54
2018-10-17T02:27:05.053Z,13.54
2018-10-17T02:28:14.869Z,13.47
2018-10-17T02:29:24.729Z,13.53
2018-10-17T02:30:34.803Z,13.53
2018-10-17T02:31:44.631Z,13.53
2018-10-17T02:32:54.456Z,13.51
2018-10-17T02:34:04.757Z,13.54
2018-10-17T02:35:15.102Z,13.5
2018-10-17T02:36:25.628Z,13.53
2018-10-17T02:37:35.478Z,13.53
2018-10-17T02:38:45.574Z,13.5
2018-10-17T02:39:55.612Z,13.47
2018-10-17T02:41:06.955Z,13.47
2018-10-17T02:42:17.343Z,13.48
2018-10-17T02:43:27.407Z,13.58
2018-10-17T02:44:37.487Z,13.48
2018-10-17T02:45:47.553Z,13.47
2018-10-17T02:46:57.955Z,13.53
2018-10-17T02:48:10.907Z,13.57
2018-10-17T02:49:21.355Z,13.5
2018-10-17T02:50:31.441Z,13.51
2018-10-17T02:51:41.517Z,13.5
2018-10-17T02:52:51.624Z,13.53
2018-10-17T02:54:01.932Z,13.51
2018-10-17T02:55:12.401Z,13.48
2018-10-17T02:56:22.652Z,13.48
2018-10-17T02:57:32.475Z,13.47
2018-10-17T02:58:42.589Z,13.4
2018-10-17T02:59:52.666Z,13.45
2018-10-17T03:01:03.416Z,13.39
2018-10-17T03:02:13.458Z,13.36
2018-10-17T03:34:48.434Z,10.63
2018-10-17T03:35:58.624Z,10.66
2018-10-17T03:37:09.056Z,10.61
2018-10-17T03:38:18.988Z,10.63
2018-10-17T03:39:28.794Z,10.59
2018-10-17T03:40:38.591Z,10.69
2018-10-17T03:41:48.669Z,10.7
2018-10-17T03:42:58.884Z,10.8
2018-10-17T03:44:08.829Z,10.88
2018-10-17T03:45:18.901Z,10.94
2018-10-17T03:46:29.019Z,11.05
2018-10-17T03:47:39.078Z,11.15
2018-10-17T03:48:50.121Z,11.28
2018-10-17T03:50:00.139Z,11.39
2018-10-17T03:51:10.453Z,11.48
2018-10-17T03:52:20.536Z,11.63
2018-10-17T03:53:30.653Z,11.64
2018-10-17T03:54:40.739Z,11.76
2018-10-17T03:55:50.555Z,11.82
2018-10-17T03:57:00.637Z,11.97
2018-10-17T03:58:10.195Z,12
2018-10-17T03:59:20.525Z,12.19
2018-10-17T04:00:31.412Z,12.29
2018-10-17T04:01:41.477Z,12.25
2018-10-17T04:02:51.374Z,12.33
2018-10-17T04:04:01.751Z,12.41
2018-10-17T04:05:11.859Z,12.41
2018-10-17T04:06:22.246Z,12.45
2018-10-17T04:07:32.327Z,12.56
2018-10-17T04:08:42.421Z,12.59
2018-10-17T04:09:52.610Z,12.61
2018-10-17T04:11:02.832Z,12.63
2018-10-17T04:12:13.189Z,12.66
2018-10-17T04:13:23.414Z,12.71
2018-10-17T04:14:33.482Z,12.74
2018-10-17T04:15:43.589Z,12.84
2018-10-17T04:16:53.728Z,12.8
2018-10-17T04:18:04.416Z,12.81
2018-10-17T04:19:14.771Z,12.8
2018-10-17T04:20:25.246Z,12.91
2018-10-17T04:21:35.339Z,12.84
2018-10-17T04:22:45.864Z,12.86
2018-10-17T04:23:56.049Z,12.89
2018-10-17T04:25:06.436Z,13.02
2018-10-17T04:26:16.886Z,12.94
2018-10-17T04:27:26.489Z,12.98
2018-10-17T04:28:36.572Z,13.07
2018-10-17T04:29:46.663Z,12.98
2018-10-17T04:30:56.683Z,13.07
2018-10-17T04:32:07.781Z,13.09
2018-10-17T04:33:17.914Z,12.99
2018-10-17T04:34:28.013Z,13.01
2018-10-17T04:35:38.127Z,13.03
2018-10-17T04:36:48.257Z,13.02
2018-10-17T04:37:58.400Z,13.07
2018-10-17T04:39:10.726Z,13.02
2018-10-17T04:40:20.538Z,13.02
2018-10-17T04:41:30.329Z,12.99
2018-10-17T04:42:40.177Z,12.98
2018-10-17T04:43:50.266Z,12.96
2018-10-17T04:44:59.802Z,12.89
2018-10-17T04:46:09.884Z,12.86
2018-10-17T04:47:19.877Z,12.92
2018-10-17T04:48:29.839Z,12.91
2018-10-17T04:49:39.712Z,12.91
2018-10-17T04:50:49.783Z,12.91
2018-10-17T04:51:59.597Z,12.86
2018-10-17T04:53:09.958Z,12.92
2018-10-17T04:54:20.407Z,12.99
2018-10-17T04:55:30.534Z,12.99
2018-10-17T04:56:40.640Z,13.01
2018-10-17T04:57:50.720Z,12.96
2018-10-17T04:59:03.355Z,13.02
2018-10-17T05:00:13.450Z,13.06
2018-10-17T05:01:23.258Z,12.89
2018-10-17T05:02:33.382Z,12.95
2018-10-17T05:03:43.476Z,13.06
2018-10-17T05:04:54.083Z,13.01
2018-10-17T05:06:04.298Z,13.07
2018-10-17T05:07:14.514Z,12.98
2018-10-17T05:08:24.833Z,13.03
2018-10-17T05:09:34.711Z,12.99
2018-10-17T05:10:44.528Z,13.07
2018-10-17T05:11:54.616Z,13.11
2018-10-17T05:13:04.845Z,13.13
2018-10-17T05:14:15.321Z,13.16
2018-10-17T05:15:25.737Z,13.16
2018-10-17T05:16:35.882Z,13.17
2018-10-17T05:17:45.693Z,13.17
2018-10-17T05:18:55.873Z,13.2
2018-10-17T05:20:06.848Z,13.21
2018-10-17T05:21:16.947Z,13.21
2018-10-17T05:22:26.766Z,13.24
2018-10-17T05:23:36.860Z,13.24
2018-10-17T05:24:46.699Z,13.35
2018-10-17T05:25:56.842Z,13.36
2018-10-17T05:27:06.915Z,13.31
2018-10-17T05:28:17.048Z,13.4
2018-10-17T05:29:26.867Z,13.31
2018-10-17T05:30:36.970Z,13.37
2018-10-17T05:31:46.789Z,13.37
2018-10-17T05:32:56.943Z,13.39
2018-10-17T05:34:07.074Z,13.39
2018-10-17T05:35:17.460Z,13.45
2018-10-17T05:36:27.558Z,13.39
2018-10-17T05:37:37.987Z,13.37
2018-10-17T05:38:48.107Z,13.45
2018-10-17T05:39:57.957Z,13.37
2018-10-17T05:41:07.925Z,13.36
2018-10-17T05:42:17.473Z,13.4
2018-10-17T05:43:27.557Z,13.45
2018-10-17T05:44:38.082Z,13.48
2018-10-17T05:45:47.847Z,13.48
2018-10-17T05:46:58.045Z,13.58
2018-10-17T05:48:10.842Z,13.68
2018-10-17T05:49:21.233Z,13.55
2018-10-17T05:50:31.316Z,13.55
2018-10-17T05:51:41.134Z,13.63
2018-10-17T05:52:51.452Z,13.75
2018-10-17T05:54:01.601Z,13.79
2018-10-17T05:55:11.631Z,13.81
2018-10-17T05:56:22.201Z,13.94
2018-10-17T05:57:32.293Z,13.94
2018-10-17T05:58:42.140Z,13.94
2018-10-17T05:59:52.255Z,13.93
2018-10-17T06:01:02.479Z,14.02
2018-10-17T06:02:13.319Z,13.95
2018-10-17T06:03:24.081Z,14.06
2018-10-17T06:04:34.222Z,14.08
2018-10-17T06:05:44.319Z,14.13
2018-10-17T06:06:54.442Z,14.19
2018-10-17T06:08:04.645Z,14.24
2018-10-17T06:09:14.731Z,14.21
2018-10-17T06:10:25.170Z,14.33
2018-10-17T06:11:35.555Z,14.33
2018-10-17T06:12:45.664Z,14.27
2018-10-17T06:13:55.484Z,14.39
2018-10-17T06:15:07.325Z,14.42
2018-10-17T06:16:17.634Z,14.42
2018-10-17T06:17:28.055Z,14.52
2018-10-17T06:18:37.701Z,14.53
2018-10-17T06:19:47.794Z,14.6
2018-10-17T06:20:57.855Z,14.52
2018-10-17T06:22:11.060Z,14.67
2018-10-17T06:23:21.160Z,14.64
2018-10-17T06:24:30.970Z,14.79
2018-10-17T06:25:41.051Z,14.77
2018-10-17T06:26:51.183Z,14.79
2018-10-17T06:28:01.321Z,14.77
2018-10-17T06:29:11.849Z,14.94
2018-10-17T06:30:22.400Z,14.86
2018-10-17T06:31:32.254Z,15.05
2018-10-17T06:32:42.330Z,15.02
2018-10-17T06:33:52.525Z,15.02
2018-10-17T06:35:03.023Z,15.05
2018-10-17T06:36:12.879Z,15.1
2018-10-17T06:37:22.823Z,15.08
2018-10-17T06:38:32.638Z,15.18
2018-10-17T06:39:42.698Z,15.25
2018-10-17T06:40:52.818Z,15.34
2018-10-17T06:42:02.947Z,15.27
2018-10-17T06:43:12.725Z,15.34
2018-10-17T06:44:23.184Z,15.45
2018-10-17T06:45:33.019Z,15.53
2018-10-17T06:46:43.246Z,15.62
2018-10-17T06:47:53.328Z,15.71
2018-10-17T06:49:03.706Z,15.81
2018-10-17T06:50:14.088Z,15.88
2018-10-17T06:51:24.358Z,15.96
2018-10-17T06:52:33.911Z,15.98
2018-10-17T06:53:44.097Z,16.1
2018-10-17T06:54:54.416Z,16.25
2018-10-17T06:56:04.739Z,16.36
2018-10-17T06:57:14.802Z,16.27
2018-10-17T06:58:24.619Z,16.39
2018-10-17T06:59:34.706Z,16.48
2018-10-17T07:00:44.508Z,16.44
2018-10-17T07:01:55.183Z,16.55
2018-10-17T07:03:05.881Z,16.55
2018-10-17T07:04:15.939Z,16.54
2018-10-17T07:05:25.770Z,16.58
2018-10-17T07:06:35.866Z,16.51
2018-10-17T07:07:45.949Z,16.63
2018-10-17T07:08:56.139Z,16.65
2018-10-17T07:10:08.872Z,16.65
2018-10-17T07:11:19.723Z,16.72
2018-10-17T07:12:29.622Z,16.76
2018-10-17T07:13:40.013Z,16.88
2018-10-17T07:14:50.112Z,17
2018-10-17T07:16:01.567Z,17.18
2018-10-17T07:17:12.412Z,17.32
2018-10-17T07:18:22.811Z,17.32
2018-10-17T07:19:33.019Z,17.24
2018-10-17T07:20:42.838Z,17.22
2018-10-17T07:21:52.916Z,17.22
2018-10-17T07:23:04.743Z,17.24
2018-10-17T07:24:15.315Z,17.2
2018-10-17T07:25:25.695Z,17.22
2018-10-17T07:26:35.778Z,17.15
2018-10-17T07:27:45.854Z,17.24
2018-10-17T07:28:56.283Z,17.21
2018-10-17T07:30:07.547Z,17.35
2018-10-17T07:31:17.156Z,17.27
2018-10-17T07:32:27.344Z,17.24
2018-10-17T07:33:37.154Z,17.22
2018-10-17T07:34:47.224Z,17.27
2018-10-17T07:35:56.823Z,17.4
2018-10-17T07:37:07.005Z,17.43
2018-10-17T07:38:16.810Z,17.47
2018-10-17T07:39:26.897Z,17.54
2018-10-17T07:40:36.983Z,17.58
2018-10-17T07:41:47.128Z,17.68
2018-10-17T07:42:57.267Z,17.66
2018-10-17T07:44:07.348Z,17.65
2018-10-17T07:45:17.432Z,17.68
2018-10-17T07:46:27.498Z,17.62
2018-10-17T07:47:37.606Z,17.66
2018-10-17T07:48:47.692Z,17.71
2018-10-17T07:49:57.828Z,17.79
2018-10-17T07:51:10.426Z,17.77
2018-10-17T07:52:20.507Z,17.77
2018-10-17T07:53:30.943Z,17.65
2018-10-17T07:54:41.452Z,17.63
2018-10-17T07:55:51.524Z,17.55
2018-10-17T07:57:01.606Z,17.54
2018-10-17T07:58:11.696Z,17.54
2018-10-17T07:59:21.501Z,17.57
2018-10-17T08:00:31.928Z,17.55
2018-10-17T08:01:42.106Z,17.69
2018-10-17T08:02:51.920Z,17.73
2018-10-17T08:04:01.745Z,17.87
2018-10-17T08:05:11.560Z,17.87
2018-10-17T08:06:21.882Z,17.98
2018-10-17T08:07:31.832Z,18.05
2018-10-17T08:08:41.687Z,18.13
2018-10-17T08:09:51.777Z,18.16
2018-10-17T08:11:01.951Z,18.2
2018-10-17T08:12:12.360Z,18.16
2018-10-17T08:13:22.842Z,18.17
2018-10-17T08:14:32.958Z,18.16
2018-10-17T08:15:43.057Z,18.17
2018-10-17T08:16:53.149Z,18.21
2018-10-17T08:18:05.834Z,18.17
2018-10-17T08:19:15.771Z,18.17
2018-10-17T08:20:25.867Z,18.2
2018-10-17T08:21:36.359Z,18.17
2018-10-17T08:22:46.439Z,18.26
2018-10-17T08:23:56.393Z,18.42
2018-10-17T08:25:07.915Z,18.44
2018-10-17T08:26:18.010Z,18.56
2018-10-17T08:27:27.945Z,18.53
2018-10-17T08:28:38.576Z,18.76
2018-10-17T08:29:48.657Z,18.89
2018-10-17T08:30:58.840Z,18.91
2018-10-17T08:32:08.986Z,19.06
2018-10-17T08:33:19.149Z,19.15
2018-10-17T08:34:29.230Z,19.38
2018-10-17T08:35:39.312Z,19.53
2018-10-17T08:36:51.110Z,19.56
2018-10-17T08:38:02.324Z,19.64
2018-10-17T08:39:12.405Z,19.87
2018-10-17T08:40:22.477Z,19.83
2018-10-17T08:41:32.603Z,19.93
2018-10-17T08:42:42.435Z,20.01
2018-10-17T08:43:52.528Z,20.1
2018-10-17T08:45:03.035Z,20.23
2018-10-17T08:46:13.495Z,20.22
2018-10-17T08:47:22.848Z,20.25
2018-10-17T08:48:32.940Z,20.22
2018-10-17T08:49:42.755Z,20.12
2018-10-17T08:50:53.315Z,20.1
2018-10-17T08:52:03.049Z,20.05
2018-10-17T08:53:13.123Z,20.07
2018-10-17T08:54:23.224Z,20.12
2018-10-17T08:55:33.067Z,20.1
2018-10-17T08:56:43.136Z,19.93
2018-10-17T08:57:53.510Z,19.9
2018-10-17T08:59:04.010Z,19.93
2018-10-17T09:00:14.091Z,19.98
2018-10-17T09:01:24.016Z,20.1
2018-10-17T09:02:34.083Z,20.2
2018-10-17T09:03:43.912Z,20.3
2018-10-17T09:04:53.748Z,20.48
2018-10-17T09:06:04.459Z,20.61
2018-10-17T09:07:14.830Z,20.78
2018-10-17T09:08:25.341Z,20.74
2018-10-17T09:09:35.209Z,20.58
2018-10-17T09:10:45.291Z,20.37
2018-10-17T09:11:55.454Z,20.07
2018-10-17T09:13:06.122Z,20.01
2018-10-17T09:14:16.482Z,19.92
2018-10-17T09:15:26.749Z,19.8
2018-10-17T09:16:36.995Z,19.95
2018-10-17T09:17:47.108Z,20.12
2018-10-17T09:18:56.954Z,20.29
2018-10-17T09:20:09.472Z,20.35
2018-10-17T09:21:21.341Z,20.4
2018-10-17T09:22:32.772Z,20.35
2018-10-17T09:23:43.154Z,20.38
2018-10-17T09:24:53.363Z,20.42
2018-10-17T09:26:03.343Z,20.61
2018-10-17T09:27:13.444Z,20.61
2018-10-17T09:28:23.655Z,20.75
2018-10-17T09:29:33.753Z,20.91
2018-10-17T09:30:43.929Z,21.22
2018-10-17T09:31:54.530Z,21.49
2018-10-17T09:33:04.628Z,21.61
2018-10-17T09:34:14.729Z,21.59
2018-10-17T09:35:25.542Z,21.58
2018-10-17T09:36:35.984Z,21.64
2018-10-17T09:37:46.071Z,21.97
2018-10-17T09:38:56.177Z,22
2018-10-17T09:40:06.601Z,22.27
2018-10-17T09:41:17.045Z,22.54
2018-10-17T09:42:27.183Z,22.54
2018-10-17T09:43:37.252Z,22.51
2018-10-17T09:44:47.343Z,22.6
2018-10-17T09:45:57.215Z,22.79
2018-10-17T09:47:08.756Z,22.89
2018-10-17T09:48:19.359Z,22.96
2018-10-17T09:49:29.507Z,22.96
2018-10-17T09:50:39.351Z,23.18
2018-10-17T09:51:49.214Z,23.28
2018-10-17T09:52:59.417Z,23.5
2018-10-17T09:54:09.493Z,23.55
2018-10-17T09:55:19.856Z,23.45
2018-10-17T09:56:29.932Z,23.25
2018-10-17T09:57:40.090Z,23.16
2018-10-17T09:58:50.190Z,23.14
2018-10-17T10:00:00.085Z,23.18
2018-10-17T10:01:12.585Z,23.06
2018-10-17T10:02:22.801Z,22.76
2018-10-17T10:03:32.878Z,22.51
2018-10-17T10:04:42.977Z,22.2
2018-10-17T10:05:53.064Z,21.93
2018-10-17T10:07:05.240Z,21.74
2018-10-17T10:08:15.376Z,21.66
2018-10-17T10:09:25.739Z,21.77
2018-10-17T10:10:35.881Z,21.56
2018-10-17T10:11:45.984Z,21.74
2018-10-17T10:12:55.801Z,21.92
2018-10-17T10:14:05.889Z,22.04
2018-10-17T10:15:16.011Z,22.26
2018-10-17T10:16:26.190Z,22.49
2018-10-17T10:17:36.267Z,22.57
2018-10-17T10:18:46.331Z,22.48
2018-10-17T10:19:56.404Z,22.38
2018-10-17T10:21:05.984Z,22.44
2018-10-17T10:22:16.233Z,22.57
2018-10-17T10:23:26.504Z,22.76
2018-10-17T10:24:37.112Z,22.91
2018-10-17T10:25:47.430Z,22.97
2018-10-17T10:26:57.617Z,23
2018-10-17T10:28:08.800Z,23
2018-10-17T10:29:19.142Z,22.99
2018-10-17T10:30:29.532Z,23.09
2018-10-17T10:31:39.605Z,23.19
2018-10-17T10:32:49.406Z,23.07
2018-10-17T10:33:59.634Z,22.85
2018-10-17T10:35:09.926Z,22.94
2018-10-17T10:36:19.947Z,23.03
2018-10-17T10:37:30.043Z,23.07
2018-10-17T10:38:40.100Z,22.99
2018-10-17T10:39:50.282Z,23.12
2018-10-17T10:41:00.521Z,23.22
2018-10-17T10:42:10.841Z,23.15
2018-10-17T10:43:21.288Z,23.01
2018-10-17T10:44:31.373Z,22.88
2018-10-17T10:45:41.823Z,22.76
2018-10-17T10:46:51.456Z,22.78
2018-10-17T10:48:01.419Z,22.78
2018-10-17T10:49:12.476Z,22.57
2018-10-17T10:50:23.223Z,22.52
2018-10-17T10:51:33.571Z,22.75
2018-10-17T10:52:44.015Z,22.94
2018-10-17T10:53:54.443Z,22.91
2018-10-17T10:55:04.743Z,22.76
2018-10-17T10:56:15.163Z,22.66
2018-10-17T10:57:25.575Z,22.64
2018-10-17T10:58:36.221Z,22.63
2018-10-17T10:59:47.196Z,22.69
2018-10-17T11:00:57.265Z,22.52
2018-10-17T11:02:07.547Z,22.64
2018-10-17T11:03:17.299Z,22.75
2018-10-17T11:04:27.156Z,22.81
2018-10-17T11:05:38.463Z,22.61
2018-10-17T11:06:49.502Z,22.6
2018-10-17T11:07:59.745Z,22.75
2018-10-17T11:09:10.702Z,22.75
2018-10-17T11:10:20.784Z,22.67
2018-10-17T11:11:30.873Z,22.59
2018-10-17T11:12:40.967Z,22.46
2018-10-17T11:13:50.941Z,22.42
2018-10-17T11:15:01.996Z,22.41
2018-10-17T11:16:12.501Z,22.41
2018-10-17T11:17:22.845Z,22.48
2018-10-17T11:18:32.987Z,22.69
2018-10-17T11:19:43.076Z,22.84
2018-10-17T11:20:52.956Z,22.73
2018-10-17T11:22:03.281Z,22.91
2018-10-17T11:23:13.642Z,23.03
2018-10-17T11:24:24.023Z,23.09
2018-10-17T11:25:34.105Z,23.14
2018-10-17T11:26:44.222Z,23.19
2018-10-17T11:27:54.373Z,23.37
2018-10-17T11:29:04.286Z,23.62
2018-10-17T11:30:14.627Z,23.84
2018-10-17T11:31:24.888Z,23.96
2018-10-17T11:32:35.247Z,23.78
2018-10-17T11:33:45.086Z,23.72
2018-10-17T11:34:55.014Z,23.55
2018-10-17T11:36:04.881Z,23.55
2018-10-17T11:37:15.097Z,23.55
2018-10-17T11:38:25.447Z,23.41
2018-10-17T11:39:35.437Z,23.38
2018-10-17T11:40:46.179Z,23.32
2018-10-17T11:41:56.536Z,23.42
2018-10-17T11:43:06.888Z,23.44
2018-10-17T11:44:17.046Z,23.56
2018-10-17T11:45:27.185Z,23.55
2018-10-17T11:46:37.303Z,23.81
2018-10-17T11:47:47.657Z,23.92
2018-10-17T11:48:58.209Z,24.09
2018-10-17T11:50:11.006Z,24.3
2018-10-17T11:51:21.339Z,24.32
2018-10-17T11:52:31.450Z,24.42
2018-10-17T11:53:41.006Z,24.56
2018-10-17T11:54:51.091Z,24.69
2018-10-17T11:56:01.181Z,24.8
2018-10-17T11:57:11.498Z,24.86
2018-10-17T11:58:21.969Z,24.94
2018-10-17T11:59:32.228Z,24.96
2018-10-17T12:00:42.232Z,25.04
2018-10-17T12:01:52.375Z,25
2018-10-17T12:03:02.637Z,24.89
2018-10-17T12:04:13.925Z,24.89
2018-10-17T12:05:25.953Z,24.86
2018-10-17T12:06:37.896Z,24.86
2018-10-17T12:07:48.259Z,24.87
2018-10-17T12:08:57.802Z,24.77
2018-10-17T12:10:10.645Z,24.77
2018-10-17T12:11:20.684Z,24.67
2018-10-17T12:12:31.742Z,24.37
2018-10-17T12:13:41.908Z,24.46
2018-10-17T12:14:52.032Z,24.4
2018-10-17T12:16:01.880Z,24.51
2018-10-17T12:17:11.817Z,24.33
2018-10-17T12:18:21.840Z,24.44
2018-10-17T12:19:31.696Z,24.33
2018-10-17T12:20:41.880Z,24.34
2018-10-17T12:21:52.266Z,24.33
2018-10-17T12:23:02.090Z,24.36
2018-10-17T12:24:12.145Z,24.17
2018-10-17T12:25:22.259Z,24.15
2018-10-17T12:26:32.339Z,24.07
2018-10-17T12:27:42.759Z,23.92
2018-10-17T12:28:53.514Z,23.75
2018-10-17T12:30:04.183Z,23.72
2018-10-17T12:31:14.662Z,23.75
2018-10-17T12:32:24.757Z,23.78
2018-10-17T12:33:34.573Z,23.82
2018-10-17T12:34:44.435Z,23.79
2018-10-17T12:35:54.581Z,23.85
2018-10-17T12:37:05.480Z,23.82
2018-10-17T12:38:15.557Z,23.82
2018-10-17T12:39:25.833Z,23.79
2018-10-17T12:40:36.805Z,23.79
2018-10-17T12:41:47.628Z,23.87
2018-10-17T12:42:57.459Z,23.81
2018-10-17T12:44:07.792Z,23.81
2018-10-17T12:45:18.042Z,23.72
2018-10-17T12:46:28.149Z,23.67
2018-10-17T12:47:38.269Z,23.62
2018-10-17T12:48:48.447Z,23.6
2018-10-17T12:49:59.065Z,23.64
2018-10-17T12:51:08.965Z,23.57
2018-10-17T12:52:19.494Z,23.55
2018-10-17T12:53:29.973Z,23.57
2018-10-17T12:54:40.443Z,23.5
2018-10-17T12:55:50.264Z,23.56
2018-10-17T12:57:00.457Z,23.67
2018-10-17T12:58:10.794Z,23.77
2018-10-17T12:59:21.421Z,23.85
2018-10-17T13:00:31.292Z,23.79
2018-10-17T13:01:41.115Z,23.64
2018-10-17T13:02:51.225Z,23.52
2018-10-17T13:04:01.771Z,23.4
2018-10-17T13:05:12.016Z,23.25
2018-10-17T13:06:22.560Z,23.22
2018-10-17T13:07:32.665Z,23.22
2018-10-17T13:08:42.759Z,23.1
2018-10-17T13:09:52.908Z,23.24
2018-10-17T13:11:03.838Z,23.35
2018-10-17T13:12:14.369Z,23.56
2018-10-17T13:13:24.193Z,23.35
2018-10-17T13:14:34.525Z,23.4
2018-10-17T13:15:44.378Z,23.26
2018-10-17T13:16:54.531Z,23.25
2018-10-17T13:18:04.931Z,23.15
2018-10-17T13:19:15.029Z,23.15
2018-10-17T13:20:25.423Z,23.32
2018-10-17T13:21:35.524Z,23.18
2018-10-17T13:22:45.645Z,23.21
2018-10-17T13:23:55.737Z,23.09
2018-10-17T13:25:06.739Z,22.99
2018-10-17T13:26:16.949Z,22.97
2018-10-17T13:27:27.040Z,22.89
2018-10-17T13:28:37.250Z,22.71
2018-10-17T13:29:47.452Z,22.73
2018-10-17T13:30:57.654Z,22.66
2018-10-17T13:32:07.935Z,22.67
2018-10-17T13:33:18.061Z,22.59
2018-10-17T13:34:28.327Z,22.55
2018-10-17T13:35:38.472Z,22.54
2018-10-17T13:36:48.583Z,22.51
2018-10-17T13:37:58.470Z,22.49
2018-10-17T13:39:08.565Z,22.42
2018-10-17T13:40:18.769Z,22.48
2018-10-17T13:41:28.895Z,22.52
2018-10-17T13:42:38.972Z,22.48
2018-10-17T13:43:49.045Z,22.76
2018-10-17T13:44:59.192Z,23.01
2018-10-17T13:46:09.292Z,23.24
2018-10-17T13:47:20.076Z,23.42
2018-10-17T13:48:30.027Z,23.56
2018-10-17T13:49:40.618Z,23.45
2018-10-17T13:50:50.732Z,23.35
2018-10-17T13:52:00.812Z,23.34
2018-10-17T13:53:11.423Z,23.38
2018-10-17T13:54:21.871Z,23.34
2018-10-17T13:55:31.706Z,23.26
2018-10-17T13:56:41.789Z,23.26
2018-10-17T13:57:52.290Z,23.25
2018-10-17T13:59:05.438Z,23.19
2018-10-17T14:00:15.656Z,23.21
2018-10-17T14:01:25.485Z,23.07
2018-10-17T14:02:35.567Z,23.04
2018-10-17T14:03:45.653Z,22.94
2018-10-17T14:04:55.809Z,22.91
2018-10-17T14:06:06.967Z,22.89
2018-10-17T14:07:17.753Z,22.89
2018-10-17T14:08:28.100Z,22.94
2018-10-17T14:09:38.173Z,22.97
2018-10-17T14:10:48.296Z,23.12
2018-10-17T14:11:58.227Z,23.21
2018-10-17T14:13:08.334Z,23.21
2018-10-17T14:14:18.514Z,23.15
2018-10-17T14:15:28.600Z,23.12
2018-10-17T14:16:38.764Z,23.16
2018-10-17T14:17:48.571Z,23.04
2018-10-17T14:18:58.467Z,22.92
2018-10-17T14:20:08.306Z,22.94
2018-10-17T14:21:18.726Z,22.84
2018-10-17T14:22:28.301Z,22.75
2018-10-17T14:23:38.817Z,22.67
2018-10-17T14:24:48.963Z,22.7
2018-10-17T14:25:59.063Z,22.64
2018-10-17T14:27:09.125Z,22.59
2018-10-17T14:28:19.697Z,22.49
2018-10-17T14:29:30.061Z,22.42
2018-10-17T14:30:40.182Z,22.36
2018-10-17T14:31:50.271Z,22.42
2018-10-17T14:33:00.339Z,22.24
2018-10-17T14:34:10.297Z,22.26
2018-10-17T14:35:20.823Z,22.12
2018-10-17T14:36:31.403Z,22.16
2018-10-17T14:37:41.388Z,22.12
2018-10-17T14:38:52.005Z,22.16
2018-10-17T14:40:02.251Z,22.29
2018-10-17T14:41:12.302Z,22.26
2018-10-17T14:42:22.701Z,22.33
2018-10-17T14:43:32.901Z,22.36
2018-10-17T14:44:42.810Z,22.26
2018-10-17T14:45:52.969Z,22.3
2018-10-17T14:47:04.966Z,22.2
2018-10-17T14:48:15.147Z,22.16
2018-10-17T14:49:25.633Z,22.12
2018-10-17T14:50:35.204Z,22.08
2018-10-17T14:51:45.452Z,22
2018-10-17T14:52:55.634Z,22.05
2018-10-17T14:54:05.528Z,21.97
2018-10-17T14:55:15.357Z,22
2018-10-17T14:56:25.753Z,22
2018-10-17T14:57:36.310Z,21.9
2018-10-17T14:58:46.522Z,21.85
2018-10-17T14:59:56.378Z,21.85
2018-10-17T15:01:07.085Z,21.83
2018-10-17T15:02:17.192Z,21.71
2018-10-17T15:03:27.290Z,21.8
2018-10-17T15:04:37.110Z,21.71
2018-10-17T15:05:47.194Z,21.68
2018-10-17T15:06:57.287Z,21.62
2018-10-17T15:08:08.127Z,21.59
2018-10-17T15:09:18.572Z,21.61
2018-10-17T15:10:29.799Z,21.64
2018-10-17T15:11:40.845Z,21.53
2018-10-17T15:12:51.564Z,21.56
2018-10-17T15:14:01.648Z,21.52
2018-10-17T15:15:12.077Z,21.51
2018-10-17T15:16:22.058Z,21.53
2018-10-17T15:17:32.390Z,21.52
2018-10-17T15:18:42.488Z,21.55
2018-10-17T15:19:52.589Z,21.45
2018-10-17T15:21:02.992Z,21.43
2018-10-17T15:22:13.386Z,21.4
2018-10-17T15:23:23.490Z,21.43
2018-10-17T15:24:33.883Z,21.37
2018-10-17T15:25:43.793Z,21.45
2018-10-17T15:26:53.418Z,21.4
2018-10-17T15:28:03.892Z,21.45
2018-10-17T15:29:14.032Z,21.43
2018-10-17T15:30:24.071Z,21.41
2018-10-17T15:31:34.472Z,21.49
2018-10-17T15:32:44.852Z,21.41
2018-10-17T15:33:54.674Z,21.38
2018-10-17T15:35:04.791Z,21.41
2018-10-17T15:36:15.309Z,21.36
2018-10-17T15:37:25.628Z,21.31
2018-10-17T15:38:35.740Z,21.33
2018-10-17T15:39:45.812Z,21.28